^^
Grace C. Lehan Memorial Weather Station Historical Data
Daily Summary for August 08, 2022 Units:  Both    English   Metric
Daily Weekly Monthly Yearly
  High: Low: Average:
Temperature: 96.3 °F /  35.7 °C 75.7 °F /  24.3 °C 82.1 °F /  27.8 °C
Dew Point: 78.9 °F /  26.1 °C 71.9 °F /  22.2 °C 74.6 °F /  23.7 °C
Humidity: 89% 53.6% 79%
Wind Speed: 2.9mph /  4.7km/h - 0.2mph /  0.3km/h
Wind Gust: 15mph /  24.1km/h - -
Wind- - WSW
Pressure: 30.00 in /  1015.8 hPa 29.90 in /  1012.4 hPa -
Precipitation: 0.06 in /  1.52 mm    
 
 
Tabular Data for August 08, 2022
Time Temperature Dew Point Pressure Wind Wind Speed Wind Gust Humidity Rainfall Rate (Hourly) solar
00:00 78.4 °F /  25.8 °C 72.8 °F /  22.7 °C 30.00in /  1015.8hPa Calm     83% 0.00in /  0mm 0 W/m2
00:09 78.3 °F /  25.7 °C 73 °F /  22.8 °C 30.00in /  1015.8hPa Calm     83.8% 0.00in /  0mm 0 W/m2
00:14 78.2 °F /  25.7 °C 73 °F /  22.8 °C 30.00in /  1015.8hPa Calm     84% 0.00in /  0mm 0 W/m2
00:19 78.2 °F /  25.7 °C 72.9 °F /  22.7 °C 30.00in /  1015.8hPa Calm     84% 0.00in /  0mm 0 W/m2
00:24 78.1 °F /  25.6 °C 72.9 °F /  22.7 °C 30.00in /  1015.8hPa Calm     84% 0.00in /  0mm 0 W/m2
00:29 78 °F /  25.6 °C 73.1 °F /  22.8 °C 30.00in /  1015.8hPa Calm     84.8% 0.00in /  0mm 0 W/m2
00:34 77.9 °F /  25.5 °C 73.1 °F /  22.8 °C 30.00in /  1015.8hPa Calm     85% 0.00in /  0mm 0 W/m2
00:39 77.9 °F /  25.5 °C 73 °F /  22.8 °C 30.00in /  1015.8hPa Calm     85% 0.00in /  0mm 0 W/m2
00:44 77.9 °F /  25.5 °C 73 °F /  22.8 °C 30.00in /  1015.8hPa Calm     85% 0.00in /  0mm 0 W/m2
00:49 77.8 °F /  25.4 °C 73.2 °F /  22.9 °C 30.00in /  1015.8hPa Calm     85.9% 0.00in /  0mm 0 W/m2
00:54 77.8 °F /  25.4 °C 73.3 °F /  22.9 °C 30.00in /  1015.8hPa Calm     86% 0.00in /  0mm 0 W/m2
00:59 77.7 °F /  25.4 °C 73.2 °F /  22.9 °C 30.00in /  1015.8hPa Calm     86% 0.00in /  0mm 0 W/m2
01:04 77.7 °F /  25.4 °C 73.2 °F /  22.9 °C 30.00in /  1015.8hPa Calm     86% 0.00in /  0mm 0 W/m2
01:09 77.6 °F /  25.3 °C 73.1 °F /  22.8 °C 30.00in /  1015.8hPa Calm     86% 0.00in /  0mm 0 W/m2
01:14 77.6 °F /  25.3 °C 73.1 °F /  22.8 °C 30.00in /  1015.8hPa Calm     86.1% 0.00in /  0mm 0 W/m2
01:19 77.5 °F /  25.3 °C 73.3 °F /  22.9 °C 30.00in /  1015.8hPa Calm     87% 0.00in /  0mm 0 W/m2
01:24 77.5 °F /  25.3 °C 73.3 °F /  22.9 °C 30.00in /  1015.8hPa Calm     87% 0.00in /  0mm 0 W/m2
01:29 77.4 °F /  25.2 °C 73.2 °F /  22.9 °C 30.00in /  1015.8hPa Calm   1mph /  1.6km/h 87% 0.00in /  0mm 0 W/m2
01:34 77.4 °F /  25.2 °C 73.2 °F /  22.9 °C 30.00in /  1015.8hPa Calm   1mph /  1.6km/h 87% 0.00in /  0mm 0 W/m2
01:39 77.4 °F /  25.2 °C 73.2 °F /  22.9 °C 29.99in /  1015.5hPa Calm     87% 0.00in /  0mm 0 W/m2
01:44 77.5 °F /  25.3 °C 73.3 °F /  22.9 °C 30.00in /  1015.8hPa Calm     87% 0.00in /  0mm 0 W/m2
01:49 77.5 °F /  25.3 °C 73.4 °F /  23 °C 30.00in /  1015.8hPa Calm     87% 0.00in /  0mm 0 W/m2
01:54 77.6 °F /  25.3 °C 73.5 °F /  23.1 °C 29.99in /  1015.5hPa Calm     87% 0.00in /  0mm 0 W/m2
01:59 77.7 °F /  25.4 °C 73.5 °F /  23.1 °C 29.99in /  1015.5hPa Calm     87% 0.00in /  0mm 0 W/m2
02:04 77.8 °F /  25.4 °C 73.6 °F /  23.1 °C 29.98in /  1015.1hPa Calm     86.8% 0.00in /  0mm 0 W/m2
02:09 77.8 °F /  25.4 °C 73.3 °F /  22.9 °C 29.98in /  1015.1hPa Calm     86% 0.00in /  0mm 0 W/m2
02:14 77.8 °F /  25.4 °C 73.3 °F /  22.9 °C 29.98in /  1015.1hPa Calm     86% 0.00in /  0mm 0 W/m2
02:19 77.9 °F /  25.5 °C 73.3 °F /  22.9 °C 29.98in /  1015.1hPa Calm     86% 0.00in /  0mm 0 W/m2
02:24 77.8 °F /  25.4 °C 73.3 °F /  22.9 °C 29.98in /  1015.1hPa Calm     86% 0.00in /  0mm 0 W/m2
02:29 77.8 °F /  25.4 °C 73.3 °F /  22.9 °C 29.99in /  1015.5hPa Calm     86% 0.00in /  0mm 0 W/m2
02:34 77.8 °F /  25.4 °C 73.3 °F /  22.9 °C 29.98in /  1015.1hPa Calm     86% 0.00in /  0mm 0 W/m2
02:39 77.8 °F /  25.4 °C 73.2 °F /  22.9 °C 29.98in /  1015.1hPa Calm     86% 0.00in /  0mm 0 W/m2
02:44 77.7 °F /  25.4 °C 73.2 °F /  22.9 °C 29.98in /  1015.1hPa Calm     86% 0.00in /  0mm 0 W/m2
02:49 77.7 °F /  25.4 °C 73.1 °F /  22.8 °C 29.98in /  1015.1hPa Calm     86% 0.00in /  0mm 0 W/m2
02:54 77.6 °F /  25.3 °C 73.1 °F /  22.8 °C 29.98in /  1015.1hPa Calm     86% 0.00in /  0mm 0 W/m2
02:59 77.6 °F /  25.3 °C 73.1 °F /  22.8 °C 29.98in /  1015.1hPa Calm     86% 0.00in /  0mm 0 W/m2
03:04 77.5 °F /  25.3 °C 73 °F /  22.8 °C 29.98in /  1015.1hPa Calm     86% 0.00in /  0mm 0 W/m2
03:09 77.5 °F /  25.3 °C 73.3 °F /  22.9 °C 29.98in /  1015.1hPa Calm     87% 0.00in /  0mm 0 W/m2
03:14 77.4 °F /  25.2 °C 73 °F /  22.8 °C 29.98in /  1015.1hPa Calm     86.4% 0.00in /  0mm 0 W/m2
03:19 77.3 °F /  25.2 °C 73 °F /  22.8 °C 29.98in /  1015.1hPa Calm     86.7% 0.00in /  0mm 0 W/m2
03:24 77.3 °F /  25.2 °C 73.1 °F /  22.8 °C 29.98in /  1015.1hPa Calm     87% 0.00in /  0mm 0 W/m2
03:29 77.2 °F /  25.1 °C 73 °F /  22.8 °C 29.97in /  1014.8hPa Calm     87% 0.00in /  0mm 0 W/m2
03:34 77.2 °F /  25.1 °C 73 °F /  22.8 °C 29.97in /  1014.8hPa Calm     87% 0.00in /  0mm 0 W/m2
03:39 77.1 °F /  25.1 °C 73 °F /  22.8 °C 29.97in /  1014.8hPa Calm     87% 0.00in /  0mm 0 W/m2
03:44 77.1 °F /  25.1 °C 72.9 °F /  22.7 °C 29.97in /  1014.8hPa Calm     87% 0.00in /  0mm 0 W/m2
03:49 77 °F /  25 °C 72.9 °F /  22.7 °C 29.98in /  1015.1hPa Calm     87% 0.00in /  0mm 0 W/m2
03:54 76.9 °F /  24.9 °C 72.8 °F /  22.7 °C 29.98in /  1015.1hPa Calm     87% 0.00in /  0mm 0 W/m2
03:59 76.9 °F /  24.9 °C 72.7 °F /  22.6 °C 29.97in /  1014.8hPa Calm     87% 0.00in /  0mm 0 W/m2
04:00 76.8 °F /  24.9 °C 72.6 °F /  22.6 °C 29.97in /  1014.8hPa Calm     87% 0.00in /  0mm 0 W/m2
04:09 76.7 °F /  24.8 °C 72.9 °F /  22.7 °C 29.97in /  1014.8hPa Calm     88% 0.00in /  0mm 0 W/m2
04:14 76.7 °F /  24.8 °C 72.8 °F /  22.7 °C 29.97in /  1014.8hPa Calm     88% 0.00in /  0mm 0 W/m2
04:19 76.6 °F /  24.8 °C 72.8 °F /  22.7 °C 29.97in /  1014.8hPa Calm     88% 0.00in /  0mm 0 W/m2
04:24 76.5 °F /  24.7 °C 72.7 °F /  22.6 °C 29.97in /  1014.8hPa Calm     88% 0.00in /  0mm 0 W/m2
04:29 76.5 °F /  24.7 °C 72.7 °F /  22.6 °C 29.97in /  1014.8hPa WSW 0.1mph /  0.2km/h 2mph /  3.2km/h 88% 0.00in /  0mm 0 W/m2
04:34 76.4 °F /  24.7 °C 72.6 °F /  22.6 °C 29.97in /  1014.8hPa Calm   2mph /  3.2km/h 88% 0.00in /  0mm 0 W/m2
04:39 76.4 °F /  24.7 °C 72.6 °F /  22.6 °C 29.97in /  1014.8hPa Calm     88% 0.00in /  0mm 0 W/m2
04:44 76.4 °F /  24.7 °C 72.6 °F /  22.6 °C 29.97in /  1014.8hPa Calm   1mph /  1.6km/h 88% 0.00in /  0mm 0 W/m2
04:49 76.4 °F /  24.7 °C 72.6 °F /  22.6 °C 29.97in /  1014.8hPa WSW 0.1mph /  0.2km/h 2mph /  3.2km/h 88% 0.00in /  0mm 0 W/m2
04:54 76.4 °F /  24.7 °C 72.6 °F /  22.6 °C 29.97in /  1014.8hPa Calm   2mph /  3.2km/h 88% 0.00in /  0mm 0 W/m2
04:59 76.4 °F /  24.7 °C 72.6 °F /  22.6 °C 29.97in /  1014.8hPa Calm   2mph /  3.2km/h 87.9% 0.00in /  0mm 0 W/m2
05:04 76.4 °F /  24.7 °C 72.3 °F /  22.4 °C 29.97in /  1014.8hPa Calm   2mph /  3.2km/h 87% 0.00in /  0mm 0 W/m2
05:09 76.4 °F /  24.7 °C 72.3 °F /  22.4 °C 29.97in /  1014.8hPa Calm     87% 0.00in /  0mm 0 W/m2
05:14 76.4 °F /  24.7 °C 72.2 °F /  22.3 °C 29.97in /  1014.8hPa Calm     87% 0.00in /  0mm 0 W/m2
05:19 76.3 °F /  24.6 °C 72.2 °F /  22.3 °C 29.97in /  1014.8hPa Calm     87% 0.00in /  0mm 0 W/m2
05:24 76.3 °F /  24.6 °C 72.1 °F /  22.3 °C 29.97in /  1014.8hPa Calm     87% 0.00in /  0mm 0 W/m2
05:29 76.2 °F /  24.6 °C 72 °F /  22.2 °C 29.97in /  1014.8hPa Calm     87% 0.00in /  0mm 0 W/m2
05:34 76.1 °F /  24.5 °C 72 °F /  22.2 °C 29.97in /  1014.8hPa Calm     87% 0.00in /  0mm 0 W/m2
05:39 76.1 °F /  24.5 °C 71.9 °F /  22.2 °C 29.97in /  1014.8hPa Calm     87% 0.00in /  0mm 0 W/m2
05:44 76 °F /  24.4 °C 72.1 °F /  22.3 °C 29.97in /  1014.8hPa Calm     87.6% 0.00in /  0mm 0 W/m2
05:49 75.9 °F /  24.4 °C 72.1 °F /  22.3 °C 29.97in /  1014.8hPa Calm     88% 0.00in /  0mm 0 W/m2
05:54 75.9 °F /  24.4 °C 72.1 °F /  22.3 °C 29.97in /  1014.8hPa Calm     88% 0.00in /  0mm 0 W/m2
05:59 75.8 °F /  24.3 °C 72 °F /  22.2 °C 29.97in /  1014.8hPa Calm     88% 0.00in /  0mm 5 W/m2
06:04 75.8 °F /  24.3 °C 72 °F /  22.2 °C 29.97in /  1014.8hPa Calm     88% 0.00in /  0mm 7 W/m2
06:09 75.8 °F /  24.3 °C 72.1 °F /  22.3 °C 29.97in /  1014.8hPa Calm     88.5% 0.00in /  0mm 11 W/m2
06:14 75.7 °F /  24.3 °C 72.2 °F /  22.3 °C 29.97in /  1014.8hPa Calm     89% 0.00in /  0mm 12 W/m2
06:19 75.7 °F /  24.3 °C 72.2 °F /  22.3 °C 29.98in /  1015.1hPa Calm     89% 0.00in /  0mm 18 W/m2
06:24 75.7 °F /  24.3 °C 72.3 °F /  22.4 °C 29.98in /  1015.1hPa Calm     89% 0.00in /  0mm 25 W/m2
06:29 75.8 °F /  24.3 °C 72.3 °F /  22.4 °C 29.98in /  1015.1hPa Calm     89% 0.00in /  0mm 30 W/m2
06:34 75.9 °F /  24.4 °C 72.5 °F /  22.5 °C 29.98in /  1015.1hPa Calm     89% 0.00in /  0mm 37 W/m2
06:39 76 °F /  24.4 °C 72.6 °F /  22.6 °C 29.98in /  1015.1hPa Calm     89% 0.00in /  0mm 44 W/m2
06:44 76.2 °F /  24.6 °C 72.7 °F /  22.6 °C 29.98in /  1015.1hPa Calm     89% 0.00in /  0mm 53 W/m2
06:49 76.4 °F /  24.7 °C 72.9 °F /  22.7 °C 29.98in /  1015.1hPa Calm     89% 0.00in /  0mm 62 W/m2
06:54 76.7 °F /  24.8 °C 73.1 °F /  22.8 °C 29.98in /  1015.1hPa Calm   1mph /  1.6km/h 88.6% 0.00in /  0mm 100 W/m2
06:59 77.2 °F /  25.1 °C 73.4 °F /  23 °C 29.98in /  1015.1hPa Calm   1mph /  1.6km/h 88% 0.00in /  0mm 160 W/m2
07:04 77.8 °F /  25.4 °C 73.7 °F /  23.2 °C 29.98in /  1015.1hPa Calm   1mph /  1.6km/h 87.4% 0.00in /  0mm 206 W/m2
07:09 78.5 °F /  25.8 °C 74 °F /  23.3 °C 29.98in /  1015.1hPa Calm     86% 0.00in /  0mm 216 W/m2
07:14 79.3 °F /  26.3 °C 74.4 °F /  23.6 °C 29.98in /  1015.1hPa Calm     85% 0.00in /  0mm 188 W/m2
07:19 80.2 °F /  26.8 °C 74.7 °F /  23.7 °C 29.98in /  1015.1hPa Calm     83.4% 0.00in /  0mm 204 W/m2
07:24 81.1 °F /  27.3 °C 74.9 °F /  23.8 °C 29.98in /  1015.1hPa Calm     81.5% 0.00in /  0mm 218 W/m2
07:29 81.9 °F /  27.7 °C 75 °F /  23.9 °C 29.98in /  1015.1hPa Calm     79.5% 0.00in /  0mm 232 W/m2
07:34 82.6 °F /  28.1 °C 75.4 °F /  24.1 °C 29.98in /  1015.1hPa Calm     78.8% 0.00in /  0mm 251 W/m2
07:39 83.3 °F /  28.5 °C 75.5 °F /  24.2 °C 29.97in /  1014.8hPa Calm     77.3% 0.00in /  0mm 267 W/m2
07:44 83.9 °F /  28.8 °C 75.6 °F /  24.2 °C 29.97in /  1014.8hPa Calm     76.2% 0.00in /  0mm 283 W/m2
07:49 84.5 °F /  29.2 °C 76.1 °F /  24.5 °C 29.98in /  1015.1hPa Calm     75.8% 0.00in /  0mm 301 W/m2
07:54 85.1 °F /  29.5 °C 76.2 °F /  24.6 °C 29.97in /  1014.8hPa WSW 0.1mph /  0.2km/h 2mph /  3.2km/h 74.9% 0.00in /  0mm 318 W/m2
07:59 85.5 °F /  29.7 °C 76.3 °F /  24.6 °C 29.97in /  1014.8hPa WSW 0.1mph /  0.2km/h 2mph /  3.2km/h 74% 0.00in /  0mm 329 W/m2
08:00 85.7 °F /  29.8 °C 76.5 °F /  24.7 °C 29.97in /  1014.8hPa WSW 2mph /  3.2km/h 2mph /  3.2km/h 74% 0.00in /  0mm 329 W/m2
08:09 86.2 °F /  30.1 °C 76.3 °F /  24.6 °C 29.98in /  1015.1hPa WSW 0.3mph /  0.5km/h 4mph /  6.4km/h 72.3% 0.00in /  0mm 362 W/m2
08:14 86.3 °F /  30.2 °C 76.3 °F /  24.6 °C 29.98in /  1015.1hPa WSW 0.3mph /  0.5km/h 4mph /  6.4km/h 72.3% 0.00in /  0mm 378 W/m2
08:19 86.3 °F /  30.2 °C 76.4 °F /  24.7 °C 29.97in /  1014.8hPa WSW 0.7mph /  1.1km/h 5mph /  8km/h 72.5% 0.00in /  0mm 401 W/m2
08:24 86.4 °F /  30.2 °C 76.5 °F /  24.7 °C 29.97in /  1014.8hPa WSW 0.2mph /  0.3km/h 5mph /  8km/h 72.5% 0.00in /  0mm 425 W/m2
08:29 86.6 °F /  30.3 °C 76.8 °F /  24.9 °C 29.97in /  1014.8hPa WSW 0.1mph /  0.2km/h 5mph /  8km/h 72.6% 0.00in /  0mm 432 W/m2
08:34 87 °F /  30.6 °C 77.3 °F /  25.2 °C 29.97in /  1014.8hPa WSW 0.3mph /  0.5km/h 5mph /  8km/h 72.9% 0.00in /  0mm 445 W/m2
08:39 87.6 °F /  30.9 °C 77.4 °F /  25.2 °C 29.97in /  1014.8hPa WSW 0.1mph /  0.2km/h 3mph /  4.8km/h 71.8% 0.00in /  0mm 461 W/m2
08:44 88.2 °F /  31.2 °C 77.4 °F /  25.2 °C 29.97in /  1014.8hPa WSW 0.1mph /  0.2km/h 3mph /  4.8km/h 70.5% 0.00in /  0mm 475 W/m2
08:49 88.4 °F /  31.3 °C 77.2 °F /  25.1 °C 29.97in /  1014.8hPa WSW 0.2mph /  0.3km/h 3mph /  4.8km/h 69.7% 0.00in /  0mm 487 W/m2
08:54 88.8 °F /  31.6 °C 77.6 °F /  25.3 °C 29.96in /  1014.4hPa West 0.7mph /  1.1km/h 5mph /  8km/h 69.7% 0.00in /  0mm 497 W/m2
08:59 89 °F /  31.7 °C 77.5 °F /  25.3 °C 29.96in /  1014.4hPa WSW 0.1mph /  0.2km/h 5mph /  8km/h 69% 0.00in /  0mm 515 W/m2
09:04 89.2 °F /  31.8 °C 77.6 °F /  25.3 °C 29.96in /  1014.4hPa WSW 0.6mph /  1km/h 5mph /  8km/h 68.6% 0.00in /  0mm 526 W/m2
09:09 89.5 °F /  31.9 °C 77.8 °F /  25.4 °C 29.96in /  1014.4hPa SW 0.5mph /  0.8km/h 3mph /  4.8km/h 68.6% 0.00in /  0mm 541 W/m2
09:14 89.9 °F /  32.2 °C 77.8 °F /  25.4 °C 29.95in /  1014.1hPa WSW 0.7mph /  1.1km/h 4mph /  6.4km/h 67.7% 0.00in /  0mm 554 W/m2
09:19 90.1 °F /  32.3 °C 77.7 °F /  25.4 °C 29.95in /  1014.1hPa WSW 0.7mph /  1.1km/h 6mph /  9.7km/h 67% 0.00in /  0mm 573 W/m2
09:30 90.9 °F /  32.7 °C 78.4 °F /  25.8 °C 29.95in /  1014.1hPa WSW 1mph /  1.6km/h 7mph /  11.3km/h 67% 0.00in /  0mm 558 W/m2
10:00 91.8 °F /  33.2 °C 77.9 °F /  25.5 °C 29.94in /  1013.8hPa WSW 1mph /  1.6km/h 11mph /  17.7km/h 64% 0.00in /  0mm 639 W/m2
10:30 93.8 °F /  34.3 °C 78.8 °F /  26 °C 29.94in /  1013.8hPa Calm   7mph /  11.3km/h 62% 0.00in /  0mm 706 W/m2
11:30 95 °F /  35 °C 78.9 °F /  26.1 °C 29.93in /  1013.4hPa Calm   6mph /  9.7km/h 60% 0.00in /  0mm 755 W/m2
12:04 93.5 °F /  34.2 °C 78.4 °F /  25.8 °C 29.93in /  1013.4hPa Calm     61.7% 0.00in /  0mm 1037 W/m2
12:09 93.7 °F /  34.3 °C 77.8 °F /  25.4 °C 29.93in /  1013.4hPa WSW 0.6mph /  1km/h 4mph /  6.4km/h 60.2% 0.00in /  0mm 1021 W/m2
12:14 93.7 °F /  34.3 °C 77.6 °F /  25.3 °C 29.93in /  1013.4hPa WSW 1.6mph /  2.6km/h 6mph /  9.7km/h 59.8% 0.00in /  0mm 1028 W/m2
12:19 93.5 °F /  34.2 °C 77.7 °F /  25.4 °C 29.93in /  1013.4hPa WSW 0.9mph /  1.4km/h 6mph /  9.7km/h 60.3% 0.00in /  0mm 1028 W/m2
12:24 93.7 °F /  34.3 °C 77.5 °F /  25.3 °C 29.92in /  1013.1hPa SW 2.8mph /  4.5km/h 11mph /  17.7km/h 59.5% 0.00in /  0mm 953 W/m2
12:29 94.1 °F /  34.5 °C 77.7 °F /  25.4 °C 29.92in /  1013.1hPa WSW 1.2mph /  1.9km/h 11mph /  17.7km/h 59.3% 0.00in /  0mm 979 W/m2
12:34 94.4 °F /  34.7 °C 77.6 °F /  25.3 °C 29.92in /  1013.1hPa SSW 0.8mph /  1.3km/h 11mph /  17.7km/h 58.4% 0.00in /  0mm 1044 W/m2
12:39 94.4 °F /  34.7 °C 76.8 °F /  24.9 °C 29.91in /  1012.8hPa SW 0.6mph /  1km/h 5mph /  8km/h 56.9% 0.00in /  0mm 1044 W/m2
12:44 94.4 °F /  34.7 °C 77 °F /  25 °C 29.91in /  1012.8hPa SW 1.5mph /  2.4km/h 7mph /  11.3km/h 57.3% 0.00in /  0mm 1000 W/m2
12:49 94.7 °F /  34.8 °C 76.9 °F /  24.9 °C 29.91in /  1012.8hPa WSW 0.5mph /  0.8km/h 7mph /  11.3km/h 56.6% 0.00in /  0mm 1009 W/m2
12:54 95.2 °F /  35.1 °C 77.5 °F /  25.3 °C 29.91in /  1012.8hPa WSW 0.2mph /  0.3km/h 7mph /  11.3km/h 56.9% 0.00in /  0mm 998 W/m2
12:59 95.6 °F /  35.3 °C 77.6 °F /  25.3 °C 29.91in /  1012.8hPa SSW 0.7mph /  1.1km/h 7mph /  11.3km/h 56.3% 0.00in /  0mm 983 W/m2
13:04 95.7 °F /  35.4 °C 77.1 °F /  25.1 °C 29.91in /  1012.8hPa SW 0.4mph /  0.6km/h 7mph /  11.3km/h 55.3% 0.00in /  0mm 977 W/m2
13:09 95.9 °F /  35.5 °C 77.7 °F /  25.4 °C 29.90in /  1012.4hPa West 1mph /  1.6km/h 7mph /  11.3km/h 56.1% 0.00in /  0mm 1065 W/m2
13:14 96.2 °F /  35.7 °C 77.9 °F /  25.5 °C 29.90in /  1012.4hPa WSW 0.8mph /  1.3km/h 7mph /  11.3km/h 55.9% 0.00in /  0mm 1025 W/m2
13:19 96.3 °F /  35.7 °C 77.3 °F /  25.2 °C 29.90in /  1012.4hPa WSW 1mph /  1.6km/h 7mph /  11.3km/h 54.7% 0.00in /  0mm 1132 W/m2
13:24 96 °F /  35.6 °C 76.5 °F /  24.7 °C 29.90in /  1012.4hPa SW 0.6mph /  1km/h 7mph /  11.3km/h 53.6% 0.00in /  0mm 253 W/m2
13:29 95.3 °F /  35.2 °C 75.9 °F /  24.4 °C 29.90in /  1012.4hPa WSW 0.8mph /  1.3km/h 12mph /  19.3km/h 53.9% 0.00in /  0mm 195 W/m2
13:34 94.6 °F /  34.8 °C 76.2 °F /  24.6 °C 29.90in /  1012.4hPa SW 0.3mph /  0.5km/h 12mph /  19.3km/h 55.4% 0.00in /  0mm 178 W/m2
13:39 94 °F /  34.4 °C 76.2 °F /  24.6 °C 29.90in /  1012.4hPa WSW 0.8mph /  1.3km/h 10mph /  16.1km/h 56.4% 0.00in /  0mm 158 W/m2
13:44 93.4 °F /  34.1 °C 76.4 °F /  24.7 °C 29.90in /  1012.4hPa WSW 2.9mph /  4.7km/h 15mph /  24.1km/h 57.9% 0.00in /  0mm 121 W/m2
13:49 92.4 °F /  33.6 °C 78 °F /  25.6 °C 29.91in /  1012.8hPa West 1.5mph /  2.4km/h 15mph /  24.1km/h 63.1% 0.03in /  0.76mm 105 W/m2
13:54 90.5 °F /  32.5 °C 78.3 °F /  25.7 °C 29.91in /  1012.8hPa WSW 1.4mph /  2.3km/h 15mph /  24.1km/h 67.6% 0.06in /  1.52mm 97 W/m2
13:59 88.1 °F /  31.2 °C 77.1 °F /  25.1 °C 29.90in /  1012.4hPa SW 0.1mph /  0.2km/h 15mph /  24.1km/h 70.1% 0.06in /  1.52mm 123 W/m2
14:04 86.1 °F /  30.1 °C 77 °F /  25 °C 29.90in /  1012.4hPa Calm   15mph /  24.1km/h 74.5% 0.06in /  1.52mm 146 W/m2
14:09 84.8 °F /  29.3 °C 77.2 °F /  25.1 °C 29.90in /  1012.4hPa Calm     78% 0.06in /  1.52mm 206 W/m2
14:14 83.9 °F /  28.8 °C 77.2 °F /  25.1 °C 29.90in /  1012.4hPa Calm     80.6% 0.06in /  1.52mm 206 W/m2
14:19 83.2 °F /  28.4 °C 77.4 °F /  25.2 °C 29.90in /  1012.4hPa Calm     82.8% 0.06in /  1.52mm 192 W/m2
14:24 82.7 °F /  28.2 °C 77.4 °F /  25.2 °C 29.90in /  1012.4hPa SW 0.1mph /  0.2km/h 2mph /  3.2km/h 83.9% 0.06in /  1.52mm 167 W/m2
14:29 82.2 °F /  27.9 °C 76.8 °F /  24.9 °C 29.90in /  1012.4hPa SW 0.1mph /  0.2km/h 2mph /  3.2km/h 83.8% 0.06in /  1.52mm 165 W/m2
14:34 81.9 °F /  27.7 °C 76.6 °F /  24.8 °C 29.91in /  1012.8hPa Calm   2mph /  3.2km/h 84% 0.06in /  1.52mm 181 W/m2
14:39 81.6 °F /  27.6 °C 76.6 °F /  24.8 °C 29.91in /  1012.8hPa Calm   1mph /  1.6km/h 85% 0.06in /  1.52mm 257 W/m2
14:44 81.4 °F /  27.4 °C 76.6 °F /  24.8 °C 29.91in /  1012.8hPa SSW 0.2mph /  0.3km/h 3mph /  4.8km/h 85.5% 0.06in /  1.52mm 424 W/m2
14:49 81.2 °F /  27.3 °C 76.4 °F /  24.7 °C 29.91in /  1012.8hPa SSW 0.3mph /  0.5km/h 3mph /  4.8km/h 85.3% 0.06in /  1.52mm 355 W/m2
14:54 81.1 °F /  27.3 °C 76.5 °F /  24.7 °C 29.91in /  1012.8hPa SSW 0.3mph /  0.5km/h 3mph /  4.8km/h 86% 0.06in /  1.52mm 478 W/m2
14:58 81.2 °F /  27.3 °C 76.7 °F /  24.8 °C 29.91in /  1012.8hPa SSW 0.6mph /  1km/h 4mph /  6.4km/h 86.2% 0.06in /  1.52mm 647 W/m2
Hartford County Weather
Compliments of Weather Underground - 4 mb